createdAt,value
2023-04-27T00:04:00.509Z,2.00
2023-04-27T00:09:02.356Z,2.20
2023-04-27T00:14:04.367Z,2.40
2023-04-27T00:19:06.811Z,2.57
2023-04-27T00:24:08.753Z,1.73
2023-04-27T00:29:10.529Z,2.60
2023-04-27T00:34:12.310Z,2.93
2023-04-27T00:39:14.347Z,2.20
2023-04-27T00:44:25.387Z,2.43
2023-04-27T00:49:27.857Z,1.90
2023-04-27T00:54:30.337Z,2.30
2023-04-27T00:59:32.183Z,2.77
2023-04-27T01:04:34.065Z,2.03
2023-04-27T01:09:35.895Z,1.87
2023-04-27T01:14:37.807Z,2.03
2023-04-27T01:19:40.198Z,1.90
2023-04-27T01:24:42.023Z,2.00
2023-04-27T01:29:44.545Z,1.80
2023-04-27T01:34:46.398Z,2.53
2023-04-27T01:39:48.218Z,1.97
2023-04-27T01:44:50.303Z,1.97
2023-04-27T01:49:52.316Z,2.23
2023-04-27T01:54:54.098Z,2.30
2023-04-27T01:59:56.084Z,1.87
2023-04-27T02:04:57.893Z,2.20
2023-04-27T02:09:59.623Z,1.90
2023-04-27T02:15:01.396Z,1.93
2023-04-27T02:20:04.221Z,2.40
2023-04-27T02:25:07.220Z,1.90
2023-04-27T02:30:11.721Z,2.50
2023-04-27T02:35:14.168Z,1.90
2023-04-27T02:40:15.971Z,2.33
2023-04-27T02:45:17.963Z,2.33
2023-04-27T02:50:19.917Z,2.40
2023-04-27T02:55:21.765Z,2.13
2023-04-27T03:00:23.855Z,2.47
2023-04-27T03:05:29.006Z,2.50
2023-04-27T03:10:30.865Z,2.00
2023-04-27T03:15:32.712Z,2.33
2023-04-27T03:20:34.454Z,2.60
2023-04-27T03:25:36.249Z,2.30
2023-04-27T03:30:41.164Z,2.30
2023-04-27T03:35:42.938Z,2.53
2023-04-27T03:40:44.732Z,3.13
2023-04-27T03:45:46.760Z,2.70
2023-04-27T03:50:49.186Z,2.33
2023-04-27T03:55:51.427Z,2.83
2023-04-27T04:00:54.547Z,3.30
2023-04-27T04:05:56.423Z,2.40
2023-04-27T04:10:58.233Z,1.80
2023-04-27T04:16:09.373Z,2.60
2023-04-27T04:21:11.302Z,2.20
2023-04-27T04:26:14.927Z,2.77
2023-04-27T04:31:18.276Z,2.20
2023-04-27T04:36:20.153Z,3.30
2023-04-27T04:41:21.955Z,3.20
2023-04-27T04:46:24.689Z,2.40
2023-04-27T04:51:26.662Z,3.17
2023-04-27T04:56:28.524Z,2.77
2023-04-27T05:01:30.441Z,3.50
2023-04-27T05:06:32.268Z,2.93
2023-04-27T05:11:34.061Z,2.50
2023-04-27T05:16:36.032Z,3.10
2023-04-27T05:21:37.896Z,3.10
2023-04-27T05:26:39.853Z,2.67
2023-04-27T05:31:41.677Z,2.77
2023-04-27T05:36:43.776Z,3.27
2023-04-27T05:41:45.523Z,2.90
2023-04-27T05:46:47.294Z,4.07
2023-04-27T05:51:49.186Z,3.37
2023-04-27T05:56:51.145Z,3.07
2023-04-27T06:01:52.967Z,2.60
2023-04-27T06:06:56.360Z,2.10
2023-04-27T06:12:01.841Z,2.50
2023-04-27T06:17:04.635Z,2.70
2023-04-27T06:22:06.519Z,2.33
2023-04-27T06:27:08.381Z,1.80
2023-04-27T06:32:10.274Z,1.73
2023-04-27T06:37:12.261Z,2.43
2023-04-27T06:42:14.282Z,2.70
2023-04-27T06:47:16.170Z,2.40
2023-04-27T06:52:21.185Z,3.27
2023-04-27T06:57:23.023Z,2.30
2023-04-27T07:02:25.678Z,2.30
2023-04-27T07:07:27.723Z,3.10
2023-04-27T07:12:30.098Z,2.60
2023-04-27T07:17:33.071Z,3.07
2023-04-27T07:22:34.900Z,2.57
2023-04-27T07:27:36.764Z,2.70
2023-04-27T07:32:44.076Z,2.47
2023-04-27T07:37:45.884Z,2.30
2023-04-27T07:42:48.139Z,2.90
2023-04-27T07:47:58.872Z,2.30
2023-04-27T07:53:01.062Z,3.57
2023-04-27T07:58:04.757Z,3.70
2023-04-27T08:03:07.982Z,2.57
2023-04-27T08:08:10.149Z,3.57
2023-04-27T08:13:12.116Z,2.17
2023-04-27T08:18:13.930Z,3.70
2023-04-27T08:23:16.738Z,4.40
2023-04-27T08:28:18.469Z,2.57
2023-04-27T08:33:20.639Z,2.80
2023-04-27T08:38:24.296Z,3.17
2023-04-27T08:43:27.539Z,2.77
2023-04-27T08:48:29.697Z,2.43
2023-04-27T08:53:33.292Z,2.00
2023-04-27T08:58:39.335Z,3.00
2023-04-27T09:03:41.322Z,2.80
2023-04-27T09:08:48.835Z,1.87
2023-04-27T09:13:50.587Z,2.23
2023-04-27T09:18:53.247Z,2.93
2023-04-27T09:23:56.750Z,2.10
2023-04-27T09:28:58.735Z,2.53
2023-04-27T09:34:01.374Z,2.17
2023-04-27T09:39:05.026Z,2.57
2023-04-27T09:44:08.955Z,2.40
2023-04-27T09:49:13.924Z,2.10
2023-04-27T09:54:17.179Z,1.93
2023-04-27T09:59:52.679Z,1.80
2023-04-27T10:05:29.691Z,2.80
2023-04-27T10:10:47.035Z,1.57
2023-04-27T10:15:49.058Z,2.00
2023-04-27T10:20:52.700Z,1.33
2023-04-27T10:25:55.763Z,1.70
2023-04-27T10:30:58.043Z,2.03
2023-04-27T10:36:00.439Z,1.90
2023-04-27T10:41:05.392Z,2.20
2023-04-27T10:46:13.719Z,2.30
2023-04-27T10:51:17.626Z,1.90
2023-04-27T10:56:19.585Z,2.30
2023-04-27T11:01:29.442Z,1.60
2023-04-27T11:06:33.465Z,1.77
2023-04-27T11:11:35.411Z,1.70
2023-04-27T11:16:47.075Z,1.57
2023-04-27T11:21:49.088Z,1.77
2023-04-27T11:26:53.894Z,1.80
2023-04-27T11:31:55.772Z,1.50
2023-04-27T11:42:28.692Z,1.97
2023-04-27T11:47:33.524Z,1.60
2023-04-27T11:52:40.141Z,1.20
2023-04-27T11:57:43.160Z,1.47
2023-04-27T12:02:45.107Z,1.70
2023-04-27T12:07:46.983Z,1.13
2023-04-27T12:12:48.803Z,1.37
2023-04-27T12:17:50.832Z,1.60
2023-04-27T12:22:54.904Z,1.23
2023-04-27T12:27:56.719Z,1.57
2023-04-27T12:33:00.664Z,1.90
2023-04-27T12:38:03.409Z,1.53
2023-04-27T12:43:05.552Z,1.50
2023-04-27T12:48:08.031Z,1.77
2023-04-27T12:53:09.912Z,2.40
2023-04-27T12:58:11.849Z,2.00
2023-04-27T13:03:13.884Z,1.17
2023-04-27T13:08:15.960Z,1.37
2023-04-27T13:13:17.756Z,1.60
2023-04-27T13:18:19.794Z,1.70
2023-04-27T13:23:21.621Z,1.87
2023-04-27T13:28:25.075Z,1.57
2023-04-27T13:33:27.143Z,1.03
2023-04-27T13:38:29.173Z,1.00
2023-04-27T13:43:31.758Z,1.10
2023-04-27T13:48:33.610Z,1.00
2023-04-27T13:53:35.361Z,1.30
2023-04-27T13:58:37.403Z,1.40
2023-04-27T14:08:41.427Z,1.50
2023-04-27T14:13:43.184Z,1.30
2023-04-27T14:18:45.012Z,1.53
2023-04-27T14:23:47.117Z,1.30
2023-04-27T14:28:49.045Z,1.20
2023-04-27T14:33:53.715Z,1.23
2023-04-27T14:38:55.532Z,1.30
2023-04-27T14:43:57.355Z,1.50
2023-04-27T14:48:59.276Z,1.67
2023-04-27T14:54:02.315Z,1.30
2023-04-27T14:59:05.432Z,1.27
2023-04-27T15:04:12.104Z,1.30
2023-04-27T15:09:14.236Z,2.10
2023-04-27T15:14:19.896Z,1.70
2023-04-27T15:19:21.668Z,1.70
2023-04-27T15:24:23.447Z,1.67
2023-04-27T15:29:25.746Z,1.80
2023-04-27T15:34:27.611Z,1.73
2023-04-27T15:39:29.684Z,1.37
2023-04-27T15:44:31.472Z,1.20
2023-04-27T15:49:39.887Z,1.67
2023-04-27T15:54:47.987Z,1.50
2023-04-27T15:59:49.833Z,1.67
2023-04-27T16:04:56.389Z,1.90
2023-04-27T16:09:59.844Z,1.30
2023-04-27T16:15:02.091Z,1.50
2023-04-27T16:20:09.406Z,2.07
2023-04-27T16:25:11.642Z,1.67
2023-04-27T16:30:14.671Z,1.43
2023-04-27T16:35:18.172Z,1.27
2023-04-27T16:40:20.880Z,1.40
2023-04-27T16:45:22.672Z,1.70
2023-04-27T16:50:24.651Z,1.73
2023-04-27T16:55:28.388Z,1.90
2023-04-27T17:00:30.436Z,1.70
2023-04-27T17:05:33.299Z,1.63
2023-04-27T17:10:36.667Z,1.90
2023-04-27T17:15:38.934Z,2.20
2023-04-27T17:20:42.207Z,2.10
2023-04-27T17:25:44.134Z,2.37
2023-04-27T17:30:46.001Z,2.97
2023-04-27T17:35:48.069Z,1.70
2023-04-27T17:40:49.966Z,2.53
2023-04-27T17:45:52.203Z,3.80
2023-04-27T17:50:54.234Z,2.70
2023-04-27T17:55:56.293Z,2.00
2023-04-27T18:00:58.255Z,1.90
2023-04-27T18:06:00.134Z,2.07
2023-04-27T18:11:02.060Z,1.53
2023-04-27T18:16:04.398Z,1.60
2023-04-27T18:21:06.790Z,1.77
2023-04-27T18:26:11.003Z,1.90
2023-04-27T18:31:18.545Z,1.80
2023-04-27T18:36:20.833Z,1.53
2023-04-27T18:41:23.700Z,1.60
2023-04-27T18:46:26.058Z,6.70
2023-04-27T18:51:29.393Z,2.10
2023-04-27T18:56:31.631Z,3.07
2023-04-27T19:01:33.716Z,2.10
2023-04-27T19:06:35.851Z,2.10
2023-04-27T19:11:37.655Z,2.93
2023-04-27T19:16:41.440Z,3.50
2023-04-27T19:21:43.610Z,2.40
2023-04-27T19:26:46.744Z,2.80
2023-04-27T19:31:48.585Z,2.43
2023-04-27T19:36:50.605Z,5.40
2023-04-27T19:41:52.360Z,2.70
2023-04-27T19:46:54.116Z,3.47
2023-04-27T19:51:55.860Z,3.90
2023-04-27T19:56:57.709Z,3.80
2023-04-27T20:01:59.640Z,3.50
2023-04-27T20:07:03.286Z,3.07
2023-04-27T20:12:19.404Z,3.07
2023-04-27T20:17:31.381Z,3.80
2023-04-27T20:22:33.287Z,3.40
2023-04-27T20:27:35.921Z,4.00
2023-04-27T20:32:40.123Z,3.90
2023-04-27T20:37:43.427Z,4.10
2023-04-27T20:42:45.767Z,3.50
2023-04-27T20:47:47.857Z,4.03
2023-04-27T20:52:49.709Z,4.40
2023-04-27T20:57:51.438Z,5.77
2023-04-27T21:02:53.454Z,4.50
2023-04-27T21:07:55.470Z,3.87
2023-04-27T21:12:57.285Z,4.50
2023-04-27T21:18:00.512Z,4.70
2023-04-27T21:23:02.365Z,4.13
2023-04-27T21:28:04.446Z,3.83
2023-04-27T21:33:06.950Z,4.07
2023-04-27T21:38:08.862Z,3.80
2023-04-27T21:43:10.751Z,3.97
2023-04-27T21:48:12.520Z,5.67
2023-04-27T21:53:15.797Z,5.73
2023-04-27T21:58:17.710Z,7.67
2023-04-27T22:03:19.778Z,7.80
2023-04-27T22:08:21.716Z,7.03
2023-04-27T22:13:23.510Z,7.37
2023-04-27T22:18:25.311Z,8.77
2023-04-27T22:23:27.221Z,8.90
2023-04-27T22:28:29.004Z,8.17
2023-04-27T22:33:32.481Z,8.63
2023-04-27T22:38:34.223Z,8.47
2023-04-27T22:43:36.326Z,8.23
2023-04-27T22:48:38.084Z,9.37
2023-04-27T22:53:39.876Z,11.90
2023-04-27T22:58:41.659Z,12.70
2023-04-27T23:03:43.613Z,13.13
2023-04-27T23:08:47.004Z,11.23
2023-04-27T23:13:50.518Z,9.20
2023-04-27T23:18:52.906Z,11.67
2023-04-27T23:23:55.050Z,13.30
2023-04-27T23:28:57.403Z,10.53
2023-04-27T23:33:59.442Z,7.37
2023-04-27T23:39:01.211Z,4.93
2023-04-27T23:44:02.952Z,4.73
2023-04-27T23:49:04.855Z,6.50
2023-04-27T23:54:09.629Z,4.10
2023-04-27T23:59:11.633Z,4.03
